sensor_id;sensor_type;location;lat;lon;timestamp;pressure;altitude;pressure_sealevel;temperature;humidity
63554;BME280;49699;48.072;7.800;2023-02-16T00:00:31;100591.00;;;-2.10;91.39
63554;BME280;49699;48.072;7.800;2023-02-16T00:02:56;100598.69;;;-2.08;91.28
63554;BME280;49699;48.072;7.800;2023-02-16T00:05:26;100594.47;;;-2.06;91.06
63554;BME280;49699;48.072;7.800;2023-02-16T00:07:52;100591.09;;;-2.04;91.06
63554;BME280;49699;48.072;7.800;2023-02-16T00:10:18;100590.28;;;-2.01;91.42
63554;BME280;49699;48.072;7.800;2023-02-16T00:12:43;100589.47;;;-1.99;91.42
63554;BME280;49699;48.072;7.800;2023-02-16T00:15:27;100591.19;;;-1.98;90.98
63554;BME280;49699;48.072;7.800;2023-02-16T00:17:53;100586.91;;;-1.99;91.09
63554;BME280;49699;48.072;7.800;2023-02-16T00:20:18;100586.88;;;-2.02;90.80
63554;BME280;49699;48.072;7.800;2023-02-16T00:22:44;100592.84;;;-2.00;91.02
63554;BME280;49699;48.072;7.800;2023-02-16T00:25:09;100593.69;;;-2.01;90.78
63554;BME280;49699;48.072;7.800;2023-02-16T00:27:34;100593.69;;;-2.01;90.93
63554;BME280;49699;48.072;7.800;2023-02-16T00:30:00;100592.00;;;-1.99;91.15
63554;BME280;49699;48.072;7.800;2023-02-16T00:32:25;100594.53;;;-2.02;90.88
63554;BME280;49699;48.072;7.800;2023-02-16T00:34:51;100593.66;;;-2.02;90.69
63554;BME280;49699;48.072;7.800;2023-02-16T00:37:16;100585.16;;;-2.03;90.74
63554;BME280;49699;48.072;7.800;2023-02-16T00:39:42;100586.00;;;-2.02;90.52
63554;BME280;49699;48.072;7.800;2023-02-16T00:42:20;100581.72;;;-2.06;90.97
63554;BME280;49699;48.072;7.800;2023-02-16T00:44:49;100580.84;;;-2.07;90.86
63554;BME280;49699;48.072;7.800;2023-02-16T00:49:41;100584.25;;;-2.06;90.54
63554;BME280;49699;48.072;7.800;2023-02-16T00:52:50;100580.03;;;-2.04;91.07
63554;BME280;49699;48.072;7.800;2023-02-16T00:54:56;100572.41;;;-2.03;90.52
63554;BME280;49699;48.072;7.800;2023-02-16T00:57:23;100571.53;;;-2.03;90.74
63554;BME280;49699;48.072;7.800;2023-02-16T00:59:50;100576.63;;;-2.05;90.71
63554;BME280;49699;48.072;7.800;2023-02-16T01:02:21;100580.91;;;-2.04;90.52
63554;BME280;49699;48.072;7.800;2023-02-16T01:04:47;100571.53;;;-2.05;90.70
63554;BME280;49699;48.072;7.800;2023-02-16T01:07:13;100576.66;;;-2.03;90.77
63554;BME280;49699;48.072;7.800;2023-02-16T01:09:58;100569.00;;;-2.03;90.61
63554;BME280;49699;48.072;7.800;2023-02-16T01:12:42;100577.50;;;-2.03;90.70
63554;BME280;49699;48.072;7.800;2023-02-16T01:15:12;100574.97;;;-2.03;90.38
63554;BME280;49699;48.072;7.800;2023-02-16T01:17:38;100571.53;;;-2.03;90.35
63554;BME280;49699;48.072;7.800;2023-02-16T01:20:13;100568.13;;;-2.04;90.57
63554;BME280;49699;48.072;7.800;2023-02-16T01:22:38;100568.13;;;-2.04;90.76
63554;BME280;49699;48.072;7.800;2023-02-16T01:25:05;100571.53;;;-2.03;90.53
63554;BME280;49699;48.072;7.800;2023-02-16T01:27:31;100574.06;;;-2.05;90.54
63554;BME280;49699;48.072;7.800;2023-02-16T01:29:56;100575.75;;;-2.07;90.42
63554;BME280;49699;48.072;7.800;2023-02-16T01:32:22;100586.72;;;-2.16;90.47
63554;BME280;49699;48.072;7.800;2023-02-16T01:34:47;100588.25;;;-2.27;89.99
63554;BME280;49699;48.072;7.800;2023-02-16T01:37:13;100581.31;;;-2.38;90.12
63554;BME280;49699;48.072;7.800;2023-02-16T01:39:41;100576.13;;;-2.46;90.58
63554;BME280;49699;48.072;7.800;2023-02-16T01:49:37;100575.22;;;-2.50;90.78
63554;BME280;49699;48.072;7.800;2023-02-16T01:52:46;100569.31;;;-2.47;90.95
63554;BME280;49699;48.072;7.800;2023-02-16T01:54:53;100572.72;;;-2.45;91.00
63554;BME280;49699;48.072;7.800;2023-02-16T02:00:18;100578.69;;;-2.45;90.57
63554;BME280;49699;48.072;7.800;2023-02-16T02:02:47;100568.53;;;-2.41;90.84
63554;BME280;49699;48.072;7.800;2023-02-16T02:05:16;100566.84;;;-2.41;90.56
63554;BME280;49699;48.072;7.800;2023-02-16T02:08:06;100566.84;;;-2.41;90.88
63554;BME280;49699;48.072;7.800;2023-02-16T02:13:31;100561.75;;;-2.41;90.51
63554;BME280;49699;48.072;7.800;2023-02-16T02:16:01;100560.03;;;-2.42;90.60
63554;BME280;49699;48.072;7.800;2023-02-16T02:18:28;100553.19;;;-2.45;90.70
63554;BME280;49699;48.072;7.800;2023-02-16T02:34:32;100559.25;;;-2.36;90.54
63554;BME280;49699;48.072;7.800;2023-02-16T02:37:05;100551.66;;;-2.33;90.49
63554;BME280;49699;48.072;7.800;2023-02-16T02:39:40;100550.78;;;-2.32;90.58
63554;BME280;49699;48.072;7.800;2023-02-16T02:42:23;100560.16;;;-2.30;90.11
63554;BME280;49699;48.072;7.800;2023-02-16T02:44:54;100547.44;;;-2.28;90.57
63554;BME280;49699;48.072;7.800;2023-02-16T02:47:21;100549.13;;;-2.29;90.26
63554;BME280;49699;48.072;7.800;2023-02-16T02:49:51;100538.91;;;-2.33;89.88
63554;BME280;49699;48.072;7.800;2023-02-16T02:52:17;100544.81;;;-2.36;90.49
63554;BME280;49699;48.072;7.800;2023-02-16T02:54:42;100542.22;;;-2.39;90.47
63554;BME280;49699;48.072;7.800;2023-02-16T02:57:32;100551.63;;;-2.36;90.58
63554;BME280;49699;48.072;7.800;2023-02-16T03:03:20;100537.19;;;-2.31;90.59
63554;BME280;49699;48.072;7.800;2023-02-16T03:06:29;100541.47;;;-2.29;90.30
63554;BME280;49699;48.072;7.800;2023-02-16T03:08:35;100539.81;;;-2.27;89.91
63554;BME280;49699;48.072;7.800;2023-02-16T03:11:09;100539.75;;;-2.31;89.66
63554;BME280;49699;48.072;7.800;2023-02-16T03:14:05;100542.22;;;-2.39;90.26
63554;BME280;49699;48.072;7.800;2023-02-16T03:16:34;100543.91;;;-2.41;90.29
63554;BME280;49699;48.072;7.800;2023-02-16T03:19:01;100536.25;;;-2.41;90.47
63554;BME280;49699;48.072;7.800;2023-02-16T03:21:46;100541.38;;;-2.38;90.44
63554;BME280;49699;48.072;7.800;2023-02-16T03:24:30;100538.88;;;-2.35;90.44
63554;BME280;49699;48.072;7.800;2023-02-16T03:27:16;100547.38;;;-2.34;90.33
63554;BME280;49699;48.072;7.800;2023-02-16T03:30:02;100545.69;;;-2.35;90.32
63554;BME280;49699;48.072;7.800;2023-02-16T03:32:29;100549.09;;;-2.35;90.25
63554;BME280;49699;48.072;7.800;2023-02-16T03:34:55;100543.16;;;-2.34;90.23
63554;BME280;49699;48.072;7.800;2023-02-16T03:37:21;100548.25;;;-2.34;90.38
63554;BME280;49699;48.072;7.800;2023-02-16T03:39:46;100544.84;;;-2.34;90.04
63554;BME280;49699;48.072;7.800;2023-02-16T03:42:31;100540.56;;;-2.35;90.17
63554;BME280;49699;48.072;7.800;2023-02-16T03:44:56;100549.09;;;-2.33;90.23
63554;BME280;49699;48.072;7.800;2023-02-16T03:47:21;100546.53;;;-2.35;90.06
63554;BME280;49699;48.072;7.800;2023-02-16T03:49:46;100546.50;;;-2.36;90.24
63554;BME280;49699;48.072;7.800;2023-02-16T03:52:12;100545.63;;;-2.38;90.19
63554;BME280;49699;48.072;7.800;2023-02-16T03:54:37;100548.13;;;-2.43;90.21
63554;BME280;49699;48.072;7.800;2023-02-16T03:57:02;100541.31;;;-2.42;90.50
63554;BME280;49699;48.072;7.800;2023-02-16T03:59:27;100538.75;;;-2.44;90.06
63554;BME280;49699;48.072;7.800;2023-02-16T04:01:53;100547.22;;;-2.47;90.48
63554;BME280;49699;48.072;7.800;2023-02-16T04:04:19;100547.25;;;-2.43;90.26
63554;BME280;49699;48.072;7.800;2023-02-16T04:06:44;100560.03;;;-2.42;90.29
63554;BME280;49699;48.072;7.800;2023-02-16T04:09:09;100558.34;;;-2.40;90.51
63554;BME280;49699;48.072;7.800;2023-02-16T04:11:35;100561.75;;;-2.39;90.42
63554;BME280;49699;48.072;7.800;2023-02-16T04:14:19;100558.41;;;-2.37;90.22
63554;BME280;49699;48.072;7.800;2023-02-16T04:16:44;100557.53;;;-2.37;89.99
63554;BME280;49699;48.072;7.800;2023-02-16T04:19:10;100558.41;;;-2.37;89.95
63554;BME280;49699;48.072;7.800;2023-02-16T04:21:35;100567.75;;;-2.36;89.89
63554;BME280;49699;48.072;7.800;2023-02-16T04:24:00;100560.94;;;-2.37;89.91
63554;BME280;49699;48.072;7.800;2023-02-16T04:26:26;100559.22;;;-2.39;89.94
63554;BME280;49699;48.072;7.800;2023-02-16T04:28:51;100556.63;;;-2.42;90.06
63554;BME280;49699;48.072;7.800;2023-02-16T04:31:17;100547.22;;;-2.47;89.79
63554;BME280;49699;48.072;7.800;2023-02-16T04:33:42;100555.66;;;-2.51;89.83
63554;BME280;49699;48.072;7.800;2023-02-16T04:36:07;100562.44;;;-2.53;90.20
63554;BME280;49699;48.072;7.800;2023-02-16T04:38:33;100554.81;;;-2.53;90.13
63554;BME280;49699;48.072;7.800;2023-02-16T04:40:58;100563.31;;;-2.52;90.50
63554;BME280;49699;48.072;7.800;2023-02-16T04:43:23;100562.47;;;-2.51;90.04
63554;BME280;49699;48.072;7.800;2023-02-16T04:45:49;100561.59;;;-2.53;90.05
63554;BME280;49699;48.072;7.800;2023-02-16T04:48:14;100565.78;;;-2.57;90.13
63554;BME280;49699;48.072;7.800;2023-02-16T04:50:39;100563.22;;;-2.58;90.29
63554;BME280;49699;48.072;7.800;2023-02-16T04:53:05;100568.31;;;-2.58;90.07
63554;BME280;49699;48.072;7.800;2023-02-16T04:55:30;100568.31;;;-2.58;90.26
63554;BME280;49699;48.072;7.800;2023-02-16T04:57:55;100569.19;;;-2.56;90.63
63554;BME280;49699;48.072;7.800;2023-02-16T05:00:21;100576.88;;;-2.55;90.24
63554;BME280;49699;48.072;7.800;2023-02-16T05:02:46;100574.31;;;-2.55;90.43
63554;BME280;49699;48.072;7.800;2023-02-16T05:05:11;100565.81;;;-2.55;90.44
63554;BME280;49699;48.072;7.800;2023-02-16T05:07:37;100560.75;;;-2.54;90.28
63554;BME280;49699;48.072;7.800;2023-02-16T05:10:03;100563.31;;;-2.52;90.49
63554;BME280;49699;48.072;7.800;2023-02-16T05:12:28;100555.66;;;-2.52;90.71
63554;BME280;49699;48.072;7.800;2023-02-16T05:15:12;100563.31;;;-2.49;90.63
63554;BME280;49699;48.072;7.800;2023-02-16T05:17:37;100564.19;;;-2.47;90.54
63554;BME280;49699;48.072;7.800;2023-02-16T05:20:03;100552.31;;;-2.47;90.52
63554;BME280;49699;48.072;7.800;2023-02-16T05:22:29;100564.22;;;-2.46;90.43
63554;BME280;49699;48.072;7.800;2023-02-16T05:24:57;100568.47;;;-2.46;90.65
63554;BME280;49699;48.072;7.800;2023-02-16T05:27:23;100575.28;;;-2.45;90.44
63554;BME280;49699;48.072;7.800;2023-02-16T05:29:49;100565.94;;;-2.45;90.48
63554;BME280;49699;48.072;7.800;2023-02-16T05:32:14;100562.56;;;-2.43;90.77
63554;BME280;49699;48.072;7.800;2023-02-16T05:34:40;100565.09;;;-2.45;90.36
63554;BME280;49699;48.072;7.800;2023-02-16T05:37:06;100563.31;;;-2.49;90.60
63554;BME280;49699;48.072;7.800;2023-02-16T05:39:31;100571.81;;;-2.50;90.57
63554;BME280;49699;48.072;7.800;2023-02-16T05:41:56;100568.41;;;-2.51;90.63
63554;BME280;49699;48.072;7.800;2023-02-16T05:44:22;100566.69;;;-2.53;90.72
63554;BME280;49699;48.072;7.800;2023-02-16T05:46:47;100577.72;;;-2.54;90.38
63554;BME280;49699;48.072;7.800;2023-02-16T05:49:13;100573.47;;;-2.54;90.46
63554;BME280;49699;48.072;7.800;2023-02-16T05:51:38;100574.31;;;-2.55;90.44
63554;BME280;49699;48.072;7.800;2023-02-16T05:54:04;100576.84;;;-2.56;90.59
63554;BME280;49699;48.072;7.800;2023-02-16T05:56:30;100582.78;;;-2.57;90.76
63554;BME280;49699;48.072;7.800;2023-02-16T05:58:56;100588.66;;;-2.61;90.45
63554;BME280;49699;48.072;7.800;2023-02-16T06:01:21;100586.91;;;-2.64;90.22
63554;BME280;49699;48.072;7.800;2023-02-16T06:03:47;100584.31;;;-2.67;90.28
63554;BME280;49699;48.072;7.800;2023-02-16T06:06:13;100587.69;;;-2.68;90.75
63554;BME280;49699;48.072;7.800;2023-02-16T06:08:38;100589.41;;;-2.67;90.55
63554;BME280;49699;48.072;7.800;2023-02-16T06:11:04;100594.56;;;-2.64;90.79
63554;BME280;49699;48.072;7.800;2023-02-16T06:13:52;100593.72;;;-2.63;90.52
63554;BME280;49699;48.072;7.800;2023-02-16T06:16:22;100597.13;;;-2.62;90.69
63554;BME280;49699;48.072;7.800;2023-02-16T06:18:47;100599.69;;;-2.62;90.39
63554;BME280;49699;48.072;7.800;2023-02-16T06:21:12;100596.28;;;-2.63;90.33
63554;BME280;49699;48.072;7.800;2023-02-16T06:23:38;100606.50;;;-2.61;90.25
63554;BME280;49699;48.072;7.800;2023-02-16T06:26:03;100603.94;;;-2.63;90.56
63554;BME280;49699;48.072;7.800;2023-02-16T06:28:28;100605.66;;;-2.60;90.38
63554;BME280;49699;48.072;7.800;2023-02-16T06:30:53;100608.22;;;-2.60;90.29
63554;BME280;49699;48.072;7.800;2023-02-16T06:33:19;100603.06;;;-2.63;90.16
63554;BME280;49699;48.072;7.800;2023-02-16T06:35:44;100604.72;;;-2.67;90.41
63554;BME280;49699;48.072;7.800;2023-02-16T06:38:09;100606.41;;;-2.69;90.70
63554;BME280;49699;48.072;7.800;2023-02-16T06:40:34;100599.59;;;-2.68;90.40
63554;BME280;49699;48.072;7.800;2023-02-16T06:43:00;100596.22;;;-2.69;90.14
63554;BME280;49699;48.072;7.800;2023-02-16T06:45:25;100601.28;;;-2.70;90.51
63554;BME280;49699;48.072;7.800;2023-02-16T06:47:50;100600.44;;;-2.69;90.51
63554;BME280;49699;48.072;7.800;2023-02-16T06:50:16;100604.69;;;-2.70;90.29
63554;BME280;49699;48.072;7.800;2023-02-16T06:52:41;100591.97;;;-2.67;90.50
63554;BME280;49699;48.072;7.800;2023-02-16T06:55:07;100603.03;;;-2.66;90.47
63554;BME280;49699;48.072;7.800;2023-02-16T06:57:32;100604.75;;;-2.64;90.59
63554;BME280;49699;48.072;7.800;2023-02-16T06:59:57;100610.75;;;-2.60;90.40
63554;BME280;49699;48.072;7.800;2023-02-16T07:02:23;100617.66;;;-2.55;90.02
63554;BME280;49699;48.072;7.800;2023-02-16T07:04:48;100613.47;;;-2.51;90.50
63554;BME280;49699;48.072;7.800;2023-02-16T07:07:13;100616.03;;;-2.47;90.30
63554;BME280;49699;48.072;7.800;2023-02-16T07:09:38;100622.09;;;-2.40;89.80
63554;BME280;49699;48.072;7.800;2023-02-16T07:12:04;100617.91;;;-2.35;90.14
63554;BME280;49699;48.072;7.800;2023-02-16T07:14:31;100634.97;;;-2.29;89.75
63554;BME280;49699;48.072;7.800;2023-02-16T07:16:56;100636.72;;;-2.25;89.85
63554;BME280;49699;48.072;7.800;2023-02-16T07:19:24;100640.22;;;-2.20;89.28
63554;BME280;49699;48.072;7.800;2023-02-16T07:21:49;100637.69;;;-2.17;89.42
63554;BME280;49699;48.072;7.800;2023-02-16T07:24:15;100638.56;;;-2.14;89.51
63554;BME280;49699;48.072;7.800;2023-02-16T07:26:40;100641.22;;;-2.07;89.13
63554;BME280;49699;48.072;7.800;2023-02-16T07:29:05;100640.41;;;-2.03;88.86
63554;BME280;49699;48.072;7.800;2023-02-16T07:31:30;100642.19;;;-1.98;88.88
63554;BME280;49699;48.072;7.800;2023-02-16T07:33:56;100645.66;;;-1.91;88.86
63554;BME280;49699;48.072;7.800;2023-02-16T07:36:21;100642.38;;;-1.83;88.86
63554;BME280;49699;48.072;7.800;2023-02-16T07:38:46;100639.91;;;-1.73;88.67
63554;BME280;49699;48.072;7.800;2023-02-16T07:41:12;100646.84;;;-1.63;88.42
63554;BME280;49699;48.072;7.800;2023-02-16T07:43:37;100647.78;;;-1.54;87.89
63554;BME280;49699;48.072;7.800;2023-02-16T07:46:03;100645.34;;;-1.45;87.83
63554;BME280;49699;48.072;7.800;2023-02-16T07:48:29;100653.16;;;-1.31;87.57
63554;BME280;49699;48.072;7.800;2023-02-16T07:50:54;100652.41;;;-1.18;87.75
63554;BME280;49699;48.072;7.800;2023-02-16T07:53:19;100643.16;;;-1.05;87.40
63554;BME280;49699;48.072;7.800;2023-02-16T07:55:45;100644.97;;;-0.89;86.89
63554;BME280;49699;48.072;7.800;2023-02-16T07:58:11;100641.72;;;-0.71;87.11
63554;BME280;49699;48.072;7.800;2023-02-16T08:00:51;100641.03;;;-0.47;86.77
63554;BME280;49699;48.072;7.800;2023-02-16T08:03:17;100632.66;;;-0.22;85.99
63554;BME280;49699;48.072;7.800;2023-02-16T08:05:42;100643.88;;;0.06;85.14
63554;BME280;49699;48.072;7.800;2023-02-16T08:08:07;100636.28;;;0.33;84.26
63554;BME280;49699;48.072;7.800;2023-02-16T08:10:32;100630.38;;;0.62;83.53
63554;BME280;49699;48.072;7.800;2023-02-16T08:12:58;100629.56;;;0.89;82.67
63554;BME280;49699;48.072;7.800;2023-02-16T08:15:23;100621.00;;;1.14;81.78
63554;BME280;49699;48.072;7.800;2023-02-16T08:17:48;100620.13;;;1.38;81.17
63554;BME280;49699;48.072;7.800;2023-02-16T08:20:13;100624.34;;;1.62;80.65
63554;BME280;49699;48.072;7.800;2023-02-16T08:22:39;100620.00;;;1.87;80.01
63554;BME280;49699;48.072;7.800;2023-02-16T08:25:04;100619.91;;;2.13;79.47
63554;BME280;49699;48.072;7.800;2023-02-16T08:27:29;100625.75;;;2.39;79.10
63554;BME280;49699;48.072;7.800;2023-02-16T08:29:55;100624.75;;;2.67;78.29
63554;BME280;49699;48.072;7.800;2023-02-16T08:32:20;100624.53;;;2.96;77.78
63554;BME280;49699;48.072;7.800;2023-02-16T08:34:45;100625.16;;;3.23;77.18
63554;BME280;49699;48.072;7.800;2023-02-16T08:37:11;100621.47;;;3.49;76.29
63554;BME280;49699;48.072;7.800;2023-02-16T08:39:37;100613.50;;;3.75;75.97
63554;BME280;49699;48.072;7.800;2023-02-16T08:42:02;100623.53;;;3.97;75.37
63554;BME280;49699;48.072;7.800;2023-02-16T08:44:28;100619.88;;;4.16;74.89
63554;BME280;49699;48.072;7.800;2023-02-16T08:46:54;100614.50;;;4.31;74.76
63554;BME280;49699;48.072;7.800;2023-02-16T08:49:20;100606.59;;;4.45;74.45
63554;BME280;49699;48.072;7.800;2023-02-16T08:51:50;100612.41;;;4.61;74.32
63554;BME280;49699;48.072;7.800;2023-02-16T08:54:17;100615.53;;;4.81;74.00
63554;BME280;49699;48.072;7.800;2023-02-16T08:56:43;100621.22;;;5.01;73.77
63554;BME280;49699;48.072;7.800;2023-02-16T08:59:11;100619.09;;;5.24;73.04
63554;BME280;49699;48.072;7.800;2023-02-16T09:01:37;100621.31;;;5.46;72.77
63554;BME280;49699;48.072;7.800;2023-02-16T09:04:02;100620.94;;;5.66;72.46
63554;BME280;49699;48.072;7.800;2023-02-16T09:06:27;100631.75;;;5.89;72.12
63554;BME280;49699;48.072;7.800;2023-02-16T09:08:54;100625.25;;;6.11;71.80
63554;BME280;49699;48.072;7.800;2023-02-16T09:11:20;100626.47;;;6.35;71.20
63554;BME280;49699;48.072;7.800;2023-02-16T09:13:45;100625.09;;;6.59;70.49
63554;BME280;49699;48.072;7.800;2023-02-16T09:16:15;100621.84;;;6.86;69.83
63554;BME280;49699;48.072;7.800;2023-02-16T09:18:41;100628.06;;;7.16;69.16
63554;BME280;49699;48.072;7.800;2023-02-16T09:21:13;100616.13;;;7.43;68.41
63554;BME280;49699;48.072;7.800;2023-02-16T09:23:40;100633.44;;;7.74;67.51
63554;BME280;49699;48.072;7.800;2023-02-16T09:26:06;100619.81;;;7.98;66.76
63554;BME280;49699;48.072;7.800;2023-02-16T09:28:35;100624.38;;;8.21;65.92
63554;BME280;49699;48.072;7.800;2023-02-16T09:33:40;100611.97;;;8.60;64.58
63554;BME280;49699;48.072;7.800;2023-02-16T09:36:06;100621.84;;;8.77;64.23
63554;BME280;49699;48.072;7.800;2023-02-16T09:38:33;100615.91;;;8.99;64.13
63554;BME280;49699;48.072;7.800;2023-02-16T09:41:04;100615.91;;;9.26;63.55
63554;BME280;49699;48.072;7.800;2023-02-16T09:45:58;100601.16;;;9.76;61.63
63554;BME280;49699;48.072;7.800;2023-02-16T09:48:35;100603.78;;;9.99;61.29
63554;BME280;49699;48.072;7.800;2023-02-16T09:51:02;100604.41;;;10.29;60.74
63554;BME280;49699;48.072;7.800;2023-02-16T09:53:31;100613.66;;;10.60;59.96
63554;BME280;49699;48.072;7.800;2023-02-16T09:56:03;100612.56;;;10.87;58.79
63554;BME280;49699;48.072;7.800;2023-02-16T09:58:38;100616.06;;;11.08;57.55
63554;BME280;49699;48.072;7.800;2023-02-16T10:04:14;100612.44;;;11.32;55.83
63554;BME280;49699;48.072;7.800;2023-02-16T10:07:01;100607.16;;;11.54;55.41
63554;BME280;49699;48.072;7.800;2023-02-16T10:09:34;100608.91;;;11.74;54.48
63554;BME280;49699;48.072;7.800;2023-02-16T10:14:41;100600.47;;;12.08;53.47
63554;BME280;49699;48.072;7.800;2023-02-16T10:22:11;100589.50;;;12.56;51.38
63554;BME280;49699;48.072;7.800;2023-02-16T10:24:40;100598.28;;;12.72;50.79
63554;BME280;49699;48.072;7.800;2023-02-16T10:27:09;100579.50;;;12.83;49.73
63554;BME280;49699;48.072;7.800;2023-02-16T10:29:36;100579.13;;;12.91;49.08
63554;BME280;49699;48.072;7.800;2023-02-16T10:34:39;100589.09;;;13.18;48.38
63554;BME280;49699;48.072;7.800;2023-02-16T10:39:58;100577.41;;;13.43;45.49
63554;BME280;49699;48.072;7.800;2023-02-16T10:42:36;100577.31;;;13.44;45.50
63554;BME280;49699;48.072;7.800;2023-02-16T10:47:44;100564.88;;;13.65;44.69
63554;BME280;49699;48.072;7.800;2023-02-16T10:52:45;100565.78;;;13.81;43.64
63554;BME280;49699;48.072;7.800;2023-02-16T10:55:10;100560.06;;;13.90;43.15
63554;BME280;49699;48.072;7.800;2023-02-16T10:57:36;100562.84;;;14.03;42.77
63554;BME280;49699;48.072;7.800;2023-02-16T11:00:05;100554.59;;;14.11;42.16
63554;BME280;49699;48.072;7.800;2023-02-16T11:02:36;100554.00;;;14.21;41.68
63554;BME280;49699;48.072;7.800;2023-02-16T11:05:02;100546.41;;;14.33;41.41
63554;BME280;49699;48.072;7.800;2023-02-16T11:07:54;100552.53;;;14.49;41.04
63554;BME280;49699;48.072;7.800;2023-02-16T11:13:23;100548.88;;;14.67;40.53
63554;BME280;49699;48.072;7.800;2023-02-16T11:15:50;100551.38;;;14.84;40.18
63554;BME280;49699;48.072;7.800;2023-02-16T11:18:25;100550.41;;;15.01;39.29
63554;BME280;49699;48.072;7.800;2023-02-16T11:20:53;100542.44;;;15.03;39.12
63554;BME280;49699;48.072;7.800;2023-02-16T11:25:57;100530.81;;;15.07;38.18
63554;BME280;49699;48.072;7.800;2023-02-16T11:28:26;100527.41;;;15.20;38.18
63554;BME280;49699;48.072;7.800;2023-02-16T11:30:57;100517.84;;;15.34;37.78
63554;BME280;49699;48.072;7.800;2023-02-16T11:33:24;100521.25;;;15.50;37.58
63554;BME280;49699;48.072;7.800;2023-02-16T11:35:53;100520.25;;;15.67;37.27
63554;BME280;49699;48.072;7.800;2023-02-16T11:38:23;100518.91;;;15.88;36.48
63554;BME280;49699;48.072;7.800;2023-02-16T11:40:50;100509.31;;;16.01;36.07
63554;BME280;49699;48.072;7.800;2023-02-16T11:43:16;100502.84;;;16.07;35.88
63554;BME280;49699;48.072;7.800;2023-02-16T11:45:42;100500.97;;;15.94;35.58
63554;BME280;49699;48.072;7.800;2023-02-16T11:48:12;100495.94;;;15.77;35.79
63554;BME280;49699;48.072;7.800;2023-02-16T11:50:54;100495.50;;;15.71;35.85
63554;BME280;49699;48.072;7.800;2023-02-16T11:53:22;100494.38;;;15.60;35.83
63554;BME280;49699;48.072;7.800;2023-02-16T11:55:49;100492.38;;;15.50;36.20
63554;BME280;49699;48.072;7.800;2023-02-16T11:58:22;100492.75;;;15.44;36.14
63554;BME280;49699;48.072;7.800;2023-02-16T12:03:33;100483.59;;;15.65;35.82
63554;BME280;49699;48.072;7.800;2023-02-16T12:06:10;100477.09;;;15.85;35.04
63554;BME280;49699;48.072;7.800;2023-02-16T12:09:12;100469.38;;;16.10;34.49
63554;BME280;49699;48.072;7.800;2023-02-16T12:11:34;100468.19;;;16.28;34.09
63554;BME280;49699;48.072;7.800;2023-02-16T12:17:11;100461.31;;;16.53;33.41
63554;BME280;49699;48.072;7.800;2023-02-16T12:19:50;100460.56;;;16.65;33.02
63554;BME280;49699;48.072;7.800;2023-02-16T12:22:24;100455.13;;;16.54;32.86
63554;BME280;49699;48.072;7.800;2023-02-16T12:25:03;100457.25;;;16.35;33.36
63554;BME280;49699;48.072;7.800;2023-02-16T12:30:11;100462.56;;;15.79;33.80
63554;BME280;49699;48.072;7.800;2023-02-16T12:32:52;100457.91;;;15.70;33.93
63554;BME280;49699;48.072;7.800;2023-02-16T12:43:24;100466.44;;;15.74;34.16
63554;BME280;49699;48.072;7.800;2023-02-16T12:45:55;100464.78;;;15.58;34.21
63554;BME280;49699;48.072;7.800;2023-02-16T12:50:47;100458.72;;;15.42;34.39
63554;BME280;49699;48.072;7.800;2023-02-16T12:53:18;100455.19;;;15.29;34.25
63554;BME280;49699;48.072;7.800;2023-02-16T12:55:47;100458.56;;;15.17;34.43
63554;BME280;49699;48.072;7.800;2023-02-16T12:58:16;100456.97;;;15.14;34.59
63554;BME280;49699;48.072;7.800;2023-02-16T13:05:50;100446.91;;;15.07;34.78
63554;BME280;49699;48.072;7.800;2023-02-16T13:11:10;100448.63;;;15.22;35.52
63554;BME280;49699;48.072;7.800;2023-02-16T13:13:38;100443.75;;;15.30;35.32
63554;BME280;49699;48.072;7.800;2023-02-16T13:16:06;100444.22;;;15.37;35.47
63554;BME280;49699;48.072;7.800;2023-02-16T13:18:36;100432.31;;;15.45;35.58
63554;BME280;49699;48.072;7.800;2023-02-16T13:21:14;100432.69;;;15.53;35.54
63554;BME280;49699;48.072;7.800;2023-02-16T13:23:56;100428.13;;;15.57;35.35
63554;BME280;49699;48.072;7.800;2023-02-16T13:28:58;100413.59;;;15.37;35.90
63554;BME280;49699;48.072;7.800;2023-02-16T13:39:24;100419.56;;;14.68;36.98
63554;BME280;49699;48.072;7.800;2023-02-16T13:41:59;100432.41;;;14.57;37.13
63554;BME280;49699;48.072;7.800;2023-02-16T13:46:54;100425.19;;;14.46;37.70
63554;BME280;49699;48.072;7.800;2023-02-16T13:49:33;100421.81;;;14.44;37.79
63554;BME280;49699;48.072;7.800;2023-02-16T13:52:04;100421.19;;;14.39;38.23
63554;BME280;49699;48.072;7.800;2023-02-16T13:54:38;100423.59;;;14.44;38.25
63554;BME280;49699;48.072;7.800;2023-02-16T13:57:15;100414.47;;;14.51;38.20
63554;BME280;49699;48.072;7.800;2023-02-16T13:59:56;100422.53;;;14.62;38.22
63554;BME280;49699;48.072;7.800;2023-02-16T14:05:08;100422.81;;;14.72;37.99
63554;BME280;49699;48.072;7.800;2023-02-16T14:07:34;100413.94;;;14.74;38.23
63554;BME280;49699;48.072;7.800;2023-02-16T14:10:02;100415.63;;;14.75;38.27
63554;BME280;49699;48.072;7.800;2023-02-16T14:12:28;100403.34;;;14.76;38.23
63554;BME280;49699;48.072;7.800;2023-02-16T14:15:01;100410.63;;;14.71;38.51
63554;BME280;49699;48.072;7.800;2023-02-16T14:17:28;100405.78;;;14.65;38.28
63554;BME280;49699;48.072;7.800;2023-02-16T14:24:52;100397.69;;;14.53;39.03
63554;BME280;49699;48.072;7.800;2023-02-16T14:30:02;100402.03;;;14.39;39.17
63554;BME280;49699;48.072;7.800;2023-02-16T14:32:29;100396.41;;;14.31;39.28
63554;BME280;49699;48.072;7.800;2023-02-16T14:35:07;100401.81;;;14.28;39.48
63554;BME280;49699;48.072;7.800;2023-02-16T14:37:39;100405.19;;;14.30;39.65
63554;BME280;49699;48.072;7.800;2023-02-16T14:40:22;100405.94;;;14.32;39.71
63554;BME280;49699;48.072;7.800;2023-02-16T14:43:04;100400.78;;;14.30;39.52
63554;BME280;49699;48.072;7.800;2023-02-16T14:45:41;100401.97;;;14.24;39.73
63554;BME280;49699;48.072;7.800;2023-02-16T14:50:43;100412.53;;;14.23;39.95
63554;BME280;49699;48.072;7.800;2023-02-16T14:53:20;100404.84;;;14.20;40.25
63554;BME280;49699;48.072;7.800;2023-02-16T14:55:55;100398.84;;;14.18;40.42